Glyn-neath, United Kingdom
Current Conditions -  °F | °C
As of 1:50 PM on Sunday 25 Jan 2015 (Local Time) from EGDX Reporting Station
Drizzle Drizzle  
Wind Chill: 41°   Ceiling: 300
Heat Index: 46°   Visibility: 3mi
Dew Point: 45°   Wind: 13mph
Humidity: 93%   Direction: 240°WSW
Pressure: 30.39"   Gusts: NA
Location:  51.75°N, 3.62°W
Report Text: EGDX 251350Z AUTO 24011KT 5000 -DZ BKN003/// BKN012/// 08/07 Q1029
Loading
Personal Weather Stations






























Interactive Weather Map New forecast layout! Learn more

10-Day Weather Forecast

Advertisements
Track Severe Weather on mobile